sensor_id;sensor_type;location;lat;lon;timestamp;noise_LAeq;noise_LA_min;noise_LA_max;noise_LA01;noise_LA95
51665;Laerm;37751;52.408;12.536;2024-03-23T00:54:10;49.39;35.39;63.89;;
51665;Laerm;37751;52.408;12.536;2024-03-23T00:56:39;48.66;33.71;66.49;;
51665;Laerm;37751;52.408;12.536;2024-03-23T00:59:07;51.03;36.50;65.62;;
51665;Laerm;37751;52.408;12.536;2024-03-23T01:01:34;51.66;35.13;66.25;;
51665;Laerm;37751;52.408;12.536;2024-03-23T01:04:03;36.25;30.37;56.28;;
51665;Laerm;37751;52.408;12.536;2024-03-23T01:06:30;51.09;31.90;62.65;;
51665;Laerm;37751;52.408;12.536;2024-03-23T01:08:58;49.55;31.76;65.06;;
51665;Laerm;37751;52.408;12.536;2024-03-23T01:11:28;52.53;34.50;66.34;;
51665;Laerm;37751;52.408;12.536;2024-03-23T01:13:55;43.69;30.26;62.22;;
51665;Laerm;37751;52.408;12.536;2024-03-23T01:16:22;49.86;32.66;67.75;;
51665;Laerm;37751;52.408;12.536;2024-03-23T01:18:50;44.18;32.76;64.66;;
51665;Laerm;37751;52.408;12.536;2024-03-23T01:21:17;48.08;35.94;64.34;;
51665;Laerm;37751;52.408;12.536;2024-03-23T01:23:45;43.67;33.92;64.68;;
51665;Laerm;37751;52.408;12.536;2024-03-23T01:26:13;49.93;33.38;66.36;;
51665;Laerm;37751;52.408;12.536;2024-03-23T01:28:43;47.97;33.47;65.40;;
51665;Laerm;37751;52.408;12.536;2024-03-23T01:31:13;52.21;32.82;67.70;;
51665;Laerm;37751;52.408;12.536;2024-03-23T01:33:44;53.16;41.67;64.88;;
51665;Laerm;37751;52.408;12.536;2024-03-23T01:36:11;52.84;40.33;66.93;;
51665;Laerm;37751;52.408;12.536;2024-03-23T01:38:40;50.40;35.22;64.76;;
51665;Laerm;37751;52.408;12.536;2024-03-23T01:41:07;49.81;34.13;65.34;;
51665;Laerm;37751;52.408;12.536;2024-03-23T01:43:37;53.88;36.41;67.61;;
51665;Laerm;37751;52.408;12.536;2024-03-23T01:46:08;51.45;37.98;66.08;;
51665;Laerm;37751;52.408;12.536;2024-03-23T01:48:36;57.60;39.79;73.22;;
51665;Laerm;37751;52.408;12.536;2024-03-23T01:51:04;55.57;41.29;71.40;;
51665;Laerm;37751;52.408;12.536;2024-03-23T01:53:33;54.95;36.62;71.95;;
51665;Laerm;37751;52.408;12.536;2024-03-23T01:56:00;51.09;37.29;66.50;;
51665;Laerm;37751;52.408;12.536;2024-03-23T01:58:29;52.33;35.45;67.58;;
51665;Laerm;37751;52.408;12.536;2024-03-23T02:00:57;52.07;35.19;71.57;;
51665;Laerm;37751;52.408;12.536;2024-03-23T02:03:28;51.73;35.24;66.68;;
51665;Laerm;37751;52.408;12.536;2024-03-23T02:05:56;52.92;38.39;68.66;;
51665;Laerm;37751;52.408;12.536;2024-03-23T02:08:24;54.08;34.39;71.36;;
51665;Laerm;37751;52.408;12.536;2024-03-23T02:10:52;47.22;34.15;63.50;;
51665;Laerm;37751;52.408;12.536;2024-03-23T02:13:19;53.80;41.41;70.07;;
51665;Laerm;37751;52.408;12.536;2024-03-23T02:15:47;51.23;31.75;66.81;;
51665;Laerm;37751;52.408;12.536;2024-03-23T02:18:14;46.23;31.47;57.92;;
51665;Laerm;37751;52.408;12.536;2024-03-23T02:20:44;52.89;33.69;67.40;;
51665;Laerm;37751;52.408;12.536;2024-03-23T02:23:17;53.13;39.11;67.46;;
51665;Laerm;37751;52.408;12.536;2024-03-23T02:25:54;55.88;31.13;68.63;;
51665;Laerm;37751;52.408;12.536;2024-03-23T02:28:21;49.40;31.26;64.97;;
51665;Laerm;37751;52.408;12.536;2024-03-23T02:30:49;51.76;30.59;72.68;;
51665;Laerm;37751;52.408;12.536;2024-03-23T02:33:21;43.22;30.16;64.41;;
51665;Laerm;37751;52.408;12.536;2024-03-23T02:35:49;48.55;32.29;65.74;;
51665;Laerm;37751;52.408;12.536;2024-03-23T02:38:18;50.34;36.08;65.04;;
51665;Laerm;37751;52.408;12.536;2024-03-23T02:40:45;48.61;33.76;66.11;;
51665;Laerm;37751;52.408;12.536;2024-03-23T02:43:13;53.13;34.91;66.57;;
51665;Laerm;37751;52.408;12.536;2024-03-23T02:45:40;48.61;33.98;66.38;;
51665;Laerm;37751;52.408;12.536;2024-03-23T02:48:07;48.89;33.88;68.10;;
51665;Laerm;37751;52.408;12.536;2024-03-23T02:50:34;49.22;35.47;66.94;;
51665;Laerm;37751;52.408;12.536;2024-03-23T02:53:02;54.04;36.65;65.63;;
51665;Laerm;37751;52.408;12.536;2024-03-23T02:55:31;54.41;39.00;70.92;;
51665;Laerm;37751;52.408;12.536;2024-03-23T02:57:58;51.62;38.68;67.42;;
51665;Laerm;37751;52.408;12.536;2024-03-23T03:00:26;56.96;38.99;75.34;;
51665;Laerm;37751;52.408;12.536;2024-03-23T03:02:53;54.01;39.97;69.74;;
51665;Laerm;37751;52.408;12.536;2024-03-23T03:05:21;52.15;38.70;67.60;;
51665;Laerm;37751;52.408;12.536;2024-03-23T03:07:48;45.97;36.65;57.32;;
51665;Laerm;37751;52.408;12.536;2024-03-23T03:10:16;50.84;36.50;69.59;;
51665;Laerm;37751;52.408;12.536;2024-03-23T03:12:46;57.50;40.72;71.80;;
51665;Laerm;37751;52.408;12.536;2024-03-23T03:15:14;52.01;35.19;70.47;;
51665;Laerm;37751;52.408;12.536;2024-03-23T03:17:41;53.57;34.22;70.97;;
51665;Laerm;37751;52.408;12.536;2024-03-23T03:20:09;52.99;35.04;69.26;;
51665;Laerm;37751;52.408;12.536;2024-03-23T03:22:38;52.21;35.51;66.12;;
51665;Laerm;37751;52.408;12.536;2024-03-23T03:25:06;46.38;33.17;62.39;;
51665;Laerm;37751;52.408;12.536;2024-03-23T03:27:34;52.24;36.58;67.67;;
51665;Laerm;37751;52.408;12.536;2024-03-23T03:30:05;52.44;34.63;65.56;;
51665;Laerm;37751;52.408;12.536;2024-03-23T03:32:34;53.07;33.57;69.30;;
51665;Laerm;37751;52.408;12.536;2024-03-23T03:35:02;57.86;35.50;72.06;;
51665;Laerm;37751;52.408;12.536;2024-03-23T03:37:29;49.38;36.61;65.11;;
51665;Laerm;37751;52.408;12.536;2024-03-23T03:39:57;51.68;34.69;67.04;;
51665;Laerm;37751;52.408;12.536;2024-03-23T03:42:24;54.49;36.96;68.54;;
51665;Laerm;37751;52.408;12.536;2024-03-23T03:44:51;54.16;37.71;69.74;;
51665;Laerm;37751;52.408;12.536;2024-03-23T03:47:21;57.28;43.95;69.79;;
51665;Laerm;37751;52.408;12.536;2024-03-23T03:49:49;55.79;37.60;67.43;;
51665;Laerm;37751;52.408;12.536;2024-03-23T03:52:17;55.61;40.71;66.67;;
51665;Laerm;37751;52.408;12.536;2024-03-23T03:55:01;56.42;39.47;70.17;;
51665;Laerm;37751;52.408;12.536;2024-03-23T03:57:29;57.85;42.91;71.99;;
51665;Laerm;37751;52.408;12.536;2024-03-23T03:59:56;55.77;35.06;69.63;;
51665;Laerm;37751;52.408;12.536;2024-03-23T04:02:26;52.65;39.54;67.54;;
51665;Laerm;37751;52.408;12.536;2024-03-23T04:04:54;54.65;40.89;66.22;;
51665;Laerm;37751;52.408;12.536;2024-03-23T04:07:21;61.01;40.51;73.50;;
51665;Laerm;37751;52.408;12.536;2024-03-23T04:09:49;65.12;49.58;76.37;;
51665;Laerm;37751;52.408;12.536;2024-03-23T04:12:16;56.04;38.84;69.03;;
51665;Laerm;37751;52.408;12.536;2024-03-23T04:14:44;56.21;40.39;70.05;;
51665;Laerm;37751;52.408;12.536;2024-03-23T04:17:12;57.34;39.95;67.95;;
51665;Laerm;37751;52.408;12.536;2024-03-23T04:19:42;53.33;40.50;65.56;;
51665;Laerm;37751;52.408;12.536;2024-03-23T04:22:10;57.14;45.17;67.48;;
51665;Laerm;37751;52.408;12.536;2024-03-23T04:24:37;55.94;44.09;69.30;;
51665;Laerm;37751;52.408;12.536;2024-03-23T04:27:05;56.87;42.74;70.00;;
51665;Laerm;37751;52.408;12.536;2024-03-23T04:29:33;57.37;46.95;68.62;;
51665;Laerm;37751;52.408;12.536;2024-03-23T04:32:00;57.52;46.09;69.86;;
51665;Laerm;37751;52.408;12.536;2024-03-23T04:34:28;59.55;44.07;71.45;;
51665;Laerm;37751;52.408;12.536;2024-03-23T04:36:58;57.48;45.50;70.16;;
51665;Laerm;37751;52.408;12.536;2024-03-23T04:39:26;58.37;46.42;72.57;;
51665;Laerm;37751;52.408;12.536;2024-03-23T04:41:53;57.61;43.32;71.92;;
51665;Laerm;37751;52.408;12.536;2024-03-23T04:44:20;55.45;45.22;68.98;;
51665;Laerm;37751;52.408;12.536;2024-03-23T04:46:48;58.98;45.39;72.95;;
51665;Laerm;37751;52.408;12.536;2024-03-23T04:49:16;60.02;41.85;76.27;;
51665;Laerm;37751;52.408;12.536;2024-03-23T04:51:43;62.98;45.96;76.36;;
51665;Laerm;37751;52.408;12.536;2024-03-23T04:54:14;58.29;46.56;71.01;;
51665;Laerm;37751;52.408;12.536;2024-03-23T04:56:41;58.02;42.75;74.00;;
51665;Laerm;37751;52.408;12.536;2024-03-23T04:59:08;53.77;42.42;68.74;;
51665;Laerm;37751;52.408;12.536;2024-03-23T05:01:37;58.26;43.76;68.79;;
51665;Laerm;37751;52.408;12.536;2024-03-23T05:04:12;58.73;43.61;70.72;;
51665;Laerm;37751;52.408;12.536;2024-03-23T05:06:39;57.66;44.48;70.44;;
51665;Laerm;37751;52.408;12.536;2024-03-23T05:09:08;56.80;44.43;68.19;;
51665;Laerm;37751;52.408;12.536;2024-03-23T05:11:40;60.05;44.36;75.91;;
51665;Laerm;37751;52.408;12.536;2024-03-23T05:14:09;58.27;44.14;72.59;;
51665;Laerm;37751;52.408;12.536;2024-03-23T05:16:37;61.07;46.30;74.76;;
51665;Laerm;37751;52.408;12.536;2024-03-23T05:19:05;57.75;41.66;71.48;;
51665;Laerm;37751;52.408;12.536;2024-03-23T05:21:32;58.63;44.00;71.52;;
51665;Laerm;37751;52.408;12.536;2024-03-23T05:23:59;61.52;46.83;72.33;;
51665;Laerm;37751;52.408;12.536;2024-03-23T05:26:26;58.52;44.45;69.95;;
51665;Laerm;37751;52.408;12.536;2024-03-23T05:28:57;59.46;45.47;72.43;;
51665;Laerm;37751;52.408;12.536;2024-03-23T05:31:24;57.32;41.71;71.19;;
51665;Laerm;37751;52.408;12.536;2024-03-23T05:33:52;59.38;44.91;71.83;;
51665;Laerm;37751;52.408;12.536;2024-03-23T05:36:19;59.55;40.78;72.30;;
51665;Laerm;37751;52.408;12.536;2024-03-23T05:38:46;57.18;40.80;70.14;;
51665;Laerm;37751;52.408;12.536;2024-03-23T05:41:13;58.41;41.56;70.62;;
51665;Laerm;37751;52.408;12.536;2024-03-23T05:43:40;59.10;43.55;69.71;;
51665;Laerm;37751;52.408;12.536;2024-03-23T05:46:13;59.39;41.78;74.93;;
51665;Laerm;37751;52.408;12.536;2024-03-23T05:48:41;61.08;42.81;75.03;;
51665;Laerm;37751;52.408;12.536;2024-03-23T05:51:09;59.12;45.67;71.47;;
51665;Laerm;37751;52.408;12.536;2024-03-23T05:53:36;58.92;44.58;68.53;;
51665;Laerm;37751;52.408;12.536;2024-03-23T05:56:04;61.35;44.63;73.65;;
51665;Laerm;37751;52.408;12.536;2024-03-23T05:58:31;61.16;46.75;70.62;;
51665;Laerm;37751;52.408;12.536;2024-03-23T06:00:59;58.18;41.64;71.34;;
51665;Laerm;37751;52.408;12.536;2024-03-23T06:03:30;59.87;43.36;71.94;;
51665;Laerm;37751;52.408;12.536;2024-03-23T06:05:57;58.55;43.96;70.99;;
51665;Laerm;37751;52.408;12.536;2024-03-23T06:08:24;59.24;45.24;71.84;;
51665;Laerm;37751;52.408;12.536;2024-03-23T06:11:01;60.33;45.40;71.90;;
51665;Laerm;37751;52.408;12.536;2024-03-23T06:13:29;55.40;40.45;70.28;;
51665;Laerm;37751;52.408;12.536;2024-03-23T06:15:56;59.59;43.84;71.58;;
51665;Laerm;37751;52.408;12.536;2024-03-23T06:18:24;60.76;46.92;69.70;;
51665;Laerm;37751;52.408;12.536;2024-03-23T06:20:55;61.54;46.84;72.80;;
51665;Laerm;37751;52.408;12.536;2024-03-23T06:23:23;60.32;48.18;71.97;;
51665;Laerm;37751;52.408;12.536;2024-03-23T06:25:50;60.17;44.08;73.98;;
51665;Laerm;37751;52.408;12.536;2024-03-23T06:28:18;61.53;42.61;71.65;;
51665;Laerm;37751;52.408;12.536;2024-03-23T06:30:45;60.73;44.91;69.51;;
51665;Laerm;37751;52.408;12.536;2024-03-23T06:33:12;62.31;47.70;72.83;;
51665;Laerm;37751;52.408;12.536;2024-03-23T06:35:39;59.64;42.03;71.31;;
51665;Laerm;37751;52.408;12.536;2024-03-23T06:38:10;59.54;44.69;71.56;;
51665;Laerm;37751;52.408;12.536;2024-03-23T06:40:39;61.11;43.66;71.98;;
51665;Laerm;37751;52.408;12.536;2024-03-23T06:43:06;62.49;49.67;74.94;;
51665;Laerm;37751;52.408;12.536;2024-03-23T06:45:33;59.58;47.93;69.34;;
51665;Laerm;37751;52.408;12.536;2024-03-23T06:48:01;60.03;48.59;70.97;;
51665;Laerm;37751;52.408;12.536;2024-03-23T06:50:29;59.73;45.76;72.21;;
51665;Laerm;37751;52.408;12.536;2024-03-23T06:52:56;61.69;47.68;75.53;;
51665;Laerm;37751;52.408;12.536;2024-03-23T06:55:27;59.95;47.52;69.91;;
51665;Laerm;37751;52.408;12.536;2024-03-23T06:57:54;62.62;48.76;76.53;;
51665;Laerm;37751;52.408;12.536;2024-03-23T07:00:22;62.18;47.39;72.37;;
51665;Laerm;37751;52.408;12.536;2024-03-23T07:02:50;61.92;46.10;71.32;;
51665;Laerm;37751;52.408;12.536;2024-03-23T07:05:17;60.42;44.33;73.61;;
51665;Laerm;37751;52.408;12.536;2024-03-23T07:07:44;63.42;47.40;73.96;;
51665;Laerm;37751;52.408;12.536;2024-03-23T07:10:12;63.35;46.61;72.27;;
51665;Laerm;37751;52.408;12.536;2024-03-23T07:12:42;62.43;46.58;73.36;;
51665;Laerm;37751;52.408;12.536;2024-03-23T07:15:11;61.74;47.06;73.78;;
51665;Laerm;37751;52.408;12.536;2024-03-23T07:17:39;60.42;45.93;70.74;;
51665;Laerm;37751;52.408;12.536;2024-03-23T07:20:07;61.69;46.35;72.27;;
51665;Laerm;37751;52.408;12.536;2024-03-23T07:22:34;62.10;50.13;73.24;;
51665;Laerm;37751;52.408;12.536;2024-03-23T07:25:02;62.12;49.80;72.89;;
51665;Laerm;37751;52.408;12.536;2024-03-23T07:27:29;60.49;47.65;71.40;;
51665;Laerm;37751;52.408;12.536;2024-03-23T07:29:59;61.74;43.83;69.97;;
51665;Laerm;37751;52.408;12.536;2024-03-23T07:32:28;63.48;50.32;71.78;;
51665;Laerm;37751;52.408;12.536;2024-03-23T07:34:55;62.86;49.15;75.25;;
51665;Laerm;37751;52.408;12.536;2024-03-23T07:37:22;63.60;51.62;73.40;;
51665;Laerm;37751;52.408;12.536;2024-03-23T07:39:50;63.33;52.21;71.99;;
51665;Laerm;37751;52.408;12.536;2024-03-23T07:42:17;62.83;51.26;72.96;;
51665;Laerm;37751;52.408;12.536;2024-03-23T07:44:44;62.20;49.24;71.89;;
51665;Laerm;37751;52.408;12.536;2024-03-23T07:47:16;63.12;50.44;73.64;;
51665;Laerm;37751;52.408;12.536;2024-03-23T07:49:43;64.03;48.52;72.45;;
51665;Laerm;37751;52.408;12.536;2024-03-23T07:52:11;61.22;45.63;70.97;;
51665;Laerm;37751;52.408;12.536;2024-03-23T07:54:39;63.62;51.49;74.69;;
51665;Laerm;37751;52.408;12.536;2024-03-23T07:57:06;63.87;54.14;72.35;;
51665;Laerm;37751;52.408;12.536;2024-03-23T07:59:32;63.25;53.29;70.75;;
51665;Laerm;37751;52.408;12.536;2024-03-23T08:02:00;63.27;49.77;74.45;;
51665;Laerm;37751;52.408;12.536;2024-03-23T08:04:30;63.17;51.86;70.86;;
51665;Laerm;37751;52.408;12.536;2024-03-23T08:06:57;63.91;49.79;76.47;;
51665;Laerm;37751;52.408;12.536;2024-03-23T08:09:25;68.37;50.93;89.18;;
51665;Laerm;37751;52.408;12.536;2024-03-23T08:11:53;64.18;53.77;71.96;;
51665;Laerm;37751;52.408;12.536;2024-03-23T08:14:21;62.07;46.46;69.95;;
51665;Laerm;37751;52.408;12.536;2024-03-23T08:16:48;63.44;49.63;70.96;;
51665;Laerm;37751;52.408;12.536;2024-03-23T08:19:15;64.44;53.88;77.52;;
51665;Laerm;37751;52.408;12.536;2024-03-23T08:21:48;62.91;48.89;71.71;;
51665;Laerm;37751;52.408;12.536;2024-03-23T08:24:21;63.32;51.63;72.46;;
51665;Laerm;37751;52.408;12.536;2024-03-23T08:26:48;63.75;51.54;73.18;;
51665;Laerm;37751;52.408;12.536;2024-03-23T08:29:15;64.58;53.68;74.06;;
51665;Laerm;37751;52.408;12.536;2024-03-23T08:31:43;65.08;52.07;73.57;;
51665;Laerm;37751;52.408;12.536;2024-03-23T08:34:19;69.97;53.90;89.04;;
51665;Laerm;37751;52.408;12.536;2024-03-23T08:36:48;65.41;52.02;73.60;;
51665;Laerm;37751;52.408;12.536;2024-03-23T08:39:16;64.11;53.85;73.84;;
51665;Laerm;37751;52.408;12.536;2024-03-23T08:41:43;64.74;53.02;73.84;;
51665;Laerm;37751;52.408;12.536;2024-03-23T08:44:11;64.29;48.48;73.95;;
51665;Laerm;37751;52.408;12.536;2024-03-23T08:46:38;63.94;49.34;71.61;;
51665;Laerm;37751;52.408;12.536;2024-03-23T08:49:15;65.40;56.80;72.34;;
51665;Laerm;37751;52.408;12.536;2024-03-23T08:51:43;63.55;51.47;74.80;;
51665;Laerm;37751;52.408;12.536;2024-03-23T08:54:13;64.95;53.23;73.82;;
51665;Laerm;37751;52.408;12.536;2024-03-23T08:56:40;63.38;51.78;71.59;;
51665;Laerm;37751;52.408;12.536;2024-03-23T08:59:07;64.82;53.21;76.47;;
51665;Laerm;37751;52.408;12.536;2024-03-23T09:01:44;63.51;51.51;72.39;;
51665;Laerm;37751;52.408;12.536;2024-03-23T09:04:18;62.02;46.67;70.60;;
51665;Laerm;37751;52.408;12.536;2024-03-23T09:06:47;63.70;53.08;71.68;;
51665;Laerm;37751;52.408;12.536;2024-03-23T09:09:17;63.34;49.57;77.53;;
51665;Laerm;37751;52.408;12.536;2024-03-23T09:11:44;64.84;51.85;83.45;;
51665;Laerm;37751;52.408;12.536;2024-03-23T09:14:18;62.06;44.15;71.16;;
51665;Laerm;37751;52.408;12.536;2024-03-23T09:16:45;61.74;48.56;69.49;;
51665;Laerm;37751;52.408;12.536;2024-03-23T09:19:12;64.16;50.64;73.10;;
51665;Laerm;37751;52.408;12.536;2024-03-23T09:21:58;62.98;50.27;69.61;;
51665;Laerm;37751;52.408;12.536;2024-03-23T09:24:28;61.74;48.04;72.23;;
51665;Laerm;37751;52.408;12.536;2024-03-23T09:26:55;63.19;49.53;71.85;;
51665;Laerm;37751;52.408;12.536;2024-03-23T09:29:25;62.50;49.72;72.40;;
51665;Laerm;37751;52.408;12.536;2024-03-23T09:31:51;68.59;50.16;88.67;;
51665;Laerm;37751;52.408;12.536;2024-03-23T09:34:22;63.39;53.92;70.86;;
51665;Laerm;37751;52.408;12.536;2024-03-23T09:36:51;63.00;48.14;70.00;;
51665;Laerm;37751;52.408;12.536;2024-03-23T09:39:19;62.08;51.51;70.76;;
51665;Laerm;37751;52.408;12.536;2024-03-23T09:41:48;62.05;47.65;72.48;;
51665;Laerm;37751;52.408;12.536;2024-03-23T09:44:16;62.72;46.12;71.36;;
51665;Laerm;37751;52.408;12.536;2024-03-23T09:46:43;63.48;49.65;72.17;;
51665;Laerm;37751;52.408;12.536;2024-03-23T09:49:13;61.62;50.26;71.47;;
51665;Laerm;37751;52.408;12.536;2024-03-23T09:51:39;61.28;51.21;70.00;;
51665;Laerm;37751;52.408;12.536;2024-03-23T09:54:07;61.41;50.97;68.62;;
51665;Laerm;37751;52.408;12.536;2024-03-23T09:56:34;60.88;47.81;68.83;;
51665;Laerm;37751;52.408;12.536;2024-03-23T09:59:04;61.80;51.49;69.25;;
51665;Laerm;37751;52.408;12.536;2024-03-23T10:01:31;61.45;50.76;68.65;;
51665;Laerm;37751;52.408;12.536;2024-03-23T10:03:58;62.05;53.09;71.76;;
51665;Laerm;37751;52.408;12.536;2024-03-23T10:06:25;61.15;49.79;68.38;;
51665;Laerm;37751;52.408;12.536;2024-03-23T10:08:52;60.28;48.89;69.58;;
51665;Laerm;37751;52.408;12.536;2024-03-23T10:11:20;61.77;51.98;69.83;;
51665;Laerm;37751;52.408;12.536;2024-03-23T10:13:47;60.03;47.51;67.62;;
51665;Laerm;37751;52.408;12.536;2024-03-23T10:16:24;60.46;49.37;71.19;;
51665;Laerm;37751;52.408;12.536;2024-03-23T10:18:51;59.94;49.77;67.41;;
51665;Laerm;37751;52.408;12.536;2024-03-23T10:21:18;61.86;50.20;69.43;;
51665;Laerm;37751;52.408;12.536;2024-03-23T10:23:45;61.52;53.04;67.52;;
51665;Laerm;37751;52.408;12.536;2024-03-23T10:26:18;62.89;52.81;75.97;;
51665;Laerm;37751;52.408;12.536;2024-03-23T10:28:52;62.70;54.57;71.55;;
51665;Laerm;37751;52.408;12.536;2024-03-23T10:31:23;62.41;52.21;68.84;;
51665;Laerm;37751;52.408;12.536;2024-03-23T10:33:50;63.34;54.24;72.02;;
51665;Laerm;37751;52.408;12.536;2024-03-23T10:36:18;62.80;53.61;70.07;;
51665;Laerm;37751;52.408;12.536;2024-03-23T10:38:46;62.06;52.55;71.77;;
51665;Laerm;37751;52.408;12.536;2024-03-23T10:41:14;61.59;50.90;71.47;;
51665;Laerm;37751;52.408;12.536;2024-03-23T10:43:44;63.14;54.97;68.66;;
51665;Laerm;37751;52.408;12.536;2024-03-23T10:46:12;61.98;49.67;70.18;;
51665;Laerm;37751;52.408;12.536;2024-03-23T10:48:42;62.96;49.53;74.99;;
51665;Laerm;37751;52.408;12.536;2024-03-23T10:51:10;62.69;50.90;71.25;;
51665;Laerm;37751;52.408;12.536;2024-03-23T10:53:37;62.18;49.92;70.68;;
51665;Laerm;37751;52.408;12.536;2024-03-23T10:56:06;63.15;50.58;72.48;;
51665;Laerm;37751;52.408;12.536;2024-03-23T10:58:38;62.10;48.58;70.10;;
51665;Laerm;37751;52.408;12.536;2024-03-23T11:01:06;62.80;51.90;70.49;;
51665;Laerm;37751;52.408;12.536;2024-03-23T11:03:34;61.96;53.40;72.35;;
51665;Laerm;37751;52.408;12.536;2024-03-23T11:06:05;61.31;53.34;68.93;;
51665;Laerm;37751;52.408;12.536;2024-03-23T11:08:35;62.11;49.64;69.40;;
51665;Laerm;37751;52.408;12.536;2024-03-23T11:11:18;64.06;53.97;71.44;;
51665;Laerm;37751;52.408;12.536;2024-03-23T11:13:55;63.56;50.39;72.16;;
51665;Laerm;37751;52.408;12.536;2024-03-23T11:16:24;63.10;52.75;70.11;;
51665;Laerm;37751;52.408;12.536;2024-03-23T11:18:51;63.53;51.26;71.55;;
51665;Laerm;37751;52.408;12.536;2024-03-23T11:21:54;63.47;55.19;75.11;;
51665;Laerm;37751;52.408;12.536;2024-03-23T11:24:22;64.22;55.71;77.36;;
51665;Laerm;37751;52.408;12.536;2024-03-23T11:26:49;63.44;54.14;79.25;;
51665;Laerm;37751;52.408;12.536;2024-03-23T11:29:17;61.29;49.25;70.00;;
51665;Laerm;37751;52.408;12.536;2024-03-23T11:31:49;61.46;52.01;69.69;;
51665;Laerm;37751;52.408;12.536;2024-03-23T11:34:17;62.25;51.41;71.02;;
51665;Laerm;37751;52.408;12.536;2024-03-23T11:36:45;60.96;50.85;72.62;;
51665;Laerm;37751;52.408;12.536;2024-03-23T11:39:22;62.30;54.04;68.03;;
51665;Laerm;37751;52.408;12.536;2024-03-23T11:41:55;61.93;53.03;72.79;;
51665;Laerm;37751;52.408;12.536;2024-03-23T11:44:25;62.83;53.11;71.26;;
51665;Laerm;37751;52.408;12.536;2024-03-23T11:46:53;62.46;51.76;71.93;;
51665;Laerm;37751;52.408;12.536;2024-03-23T11:49:21;61.80;51.65;68.47;;
51665;Laerm;37751;52.408;12.536;2024-03-23T11:51:49;62.49;51.02;69.67;;
51665;Laerm;37751;52.408;12.536;2024-03-23T11:54:24;61.85;53.27;70.75;;
51665;Laerm;37751;52.408;12.536;2024-03-23T11:56:55;61.89;50.88;73.76;;
51665;Laerm;37751;52.408;12.536;2024-03-23T11:59:33;66.37;52.97;79.14;;
51665;Laerm;37751;52.408;12.536;2024-03-23T12:02:05;60.45;50.79;67.92;;
51665;Laerm;37751;52.408;12.536;2024-03-23T12:04:32;62.28;52.81;71.05;;
51665;Laerm;37751;52.408;12.536;2024-03-23T12:07:13;60.86;51.11;68.02;;
51665;Laerm;37751;52.408;12.536;2024-03-23T12:09:43;60.92;50.55;69.58;;
51665;Laerm;37751;52.408;12.536;2024-03-23T12:12:33;61.89;50.25;71.12;;
51665;Laerm;37751;52.408;12.536;2024-03-23T12:15:05;61.06;46.53;70.83;;
51665;Laerm;37751;52.408;12.536;2024-03-23T12:17:33;67.56;47.13;87.29;;
51665;Laerm;37751;52.408;12.536;2024-03-23T12:20:00;61.95;48.95;78.55;;
51665;Laerm;37751;52.408;12.536;2024-03-23T12:22:27;60.69;50.62;66.60;;
51665;Laerm;37751;52.408;12.536;2024-03-23T12:24:57;60.96;52.78;70.45;;
51665;Laerm;37751;52.408;12.536;2024-03-23T12:27:26;61.03;47.43;68.18;;
51665;Laerm;37751;52.408;12.536;2024-03-23T12:30:03;61.64;51.08;72.78;;
51665;Laerm;37751;52.408;12.536;2024-03-23T12:32:36;60.14;49.22;70.25;;
51665;Laerm;37751;52.408;12.536;2024-03-23T12:35:04;60.52;49.79;68.30;;
51665;Laerm;37751;52.408;12.536;2024-03-23T12:37:32;60.11;50.01;70.49;;
51665;Laerm;37751;52.408;12.536;2024-03-23T12:40:07;60.45;48.71;71.48;;
51665;Laerm;37751;52.408;12.536;2024-03-23T12:42:40;62.06;52.59;74.60;;
51665;Laerm;37751;52.408;12.536;2024-03-23T12:45:08;61.27;50.63;70.32;;
51665;Laerm;37751;52.408;12.536;2024-03-23T12:47:36;60.67;51.73;69.56;;
51665;Laerm;37751;52.408;12.536;2024-03-23T12:50:08;60.52;50.43;71.67;;
51665;Laerm;37751;52.408;12.536;2024-03-23T12:52:35;57.84;49.60;66.10;;
51665;Laerm;37751;52.408;12.536;2024-03-23T12:55:06;58.27;49.95;67.94;;
51665;Laerm;37751;52.408;12.536;2024-03-23T12:57:34;61.34;50.61;80.86;;
51665;Laerm;37751;52.408;12.536;2024-03-23T13:00:07;60.22;50.26;69.47;;
51665;Laerm;37751;52.408;12.536;2024-03-23T13:02:34;58.84;49.29;67.12;;
51665;Laerm;37751;52.408;12.536;2024-03-23T13:05:01;59.86;48.93;69.85;;
51665;Laerm;37751;52.408;12.536;2024-03-23T13:07:32;60.32;50.24;69.87;;
51665;Laerm;37751;52.408;12.536;2024-03-23T13:14:04;59.96;48.32;78.83;;
51665;Laerm;37751;52.408;12.536;2024-03-23T13:17:23;58.47;46.68;68.89;;
51665;Laerm;37751;52.408;12.536;2024-03-23T13:20:24;59.47;47.66;69.50;;
51665;Laerm;37751;52.408;12.536;2024-03-23T13:23:09;60.45;50.65;68.24;;
51665;Laerm;37751;52.408;12.536;2024-03-23T13:25:50;59.31;50.12;67.03;;
51665;Laerm;37751;52.408;12.536;2024-03-23T13:28:17;59.53;48.56;68.10;;
51665;Laerm;37751;52.408;12.536;2024-03-23T13:30:51;60.91;48.18;73.05;;
51665;Laerm;37751;52.408;12.536;2024-03-23T13:33:18;59.93;48.19;67.34;;
51665;Laerm;37751;52.408;12.536;2024-03-23T13:35:52;60.40;50.42;68.33;;
51665;Laerm;37751;52.408;12.536;2024-03-23T13:38:23;59.60;51.04;66.50;;
51665;Laerm;37751;52.408;12.536;2024-03-23T13:40:59;60.23;51.47;68.49;;
51665;Laerm;37751;52.408;12.536;2024-03-23T13:43:48;58.75;50.03;69.13;;
51665;Laerm;37751;52.408;12.536;2024-03-23T13:46:37;61.39;54.20;68.98;;
51665;Laerm;37751;52.408;12.536;2024-03-23T13:49:32;62.16;51.63;68.37;;
51665;Laerm;37751;52.408;12.536;2024-03-23T13:52:33;62.24;52.30;70.14;;
51665;Laerm;37751;52.408;12.536;2024-03-23T13:55:14;62.57;54.89;69.82;;
51665;Laerm;37751;52.408;12.536;2024-03-23T13:58:12;64.16;54.87;72.88;;
51665;Laerm;37751;52.408;12.536;2024-03-23T14:00:44;64.25;52.24;72.85;;
51665;Laerm;37751;52.408;12.536;2024-03-23T14:03:23;65.87;54.83;76.69;;
51665;Laerm;37751;52.408;12.536;2024-03-23T14:05:50;62.16;50.96;71.47;;
51665;Laerm;37751;52.408;12.536;2024-03-23T14:08:18;62.93;49.52;71.70;;
51665;Laerm;37751;52.408;12.536;2024-03-23T14:10:45;63.31;53.78;72.86;;
51665;Laerm;37751;52.408;12.536;2024-03-23T14:13:17;63.45;54.14;71.64;;
51665;Laerm;37751;52.408;12.536;2024-03-23T14:15:52;62.04;48.55;69.14;;
51665;Laerm;37751;52.408;12.536;2024-03-23T14:18:19;63.16;50.03;72.21;;
51665;Laerm;37751;52.408;12.536;2024-03-23T14:20:47;60.98;51.74;68.55;;
51665;Laerm;37751;52.408;12.536;2024-03-23T14:23:14;62.41;49.19;71.63;;
51665;Laerm;37751;52.408;12.536;2024-03-23T14:25:42;61.39;49.98;69.72;;
51665;Laerm;37751;52.408;12.536;2024-03-23T14:28:11;60.06;50.11;69.80;;
51665;Laerm;37751;52.408;12.536;2024-03-23T14:30:43;62.42;50.07;76.76;;
51665;Laerm;37751;52.408;12.536;2024-03-23T14:33:11;60.21;49.26;71.48;;
51665;Laerm;37751;52.408;12.536;2024-03-23T14:35:38;60.89;46.77;69.24;;
51665;Laerm;37751;52.408;12.536;2024-03-23T14:38:05;62.07;49.79;70.28;;
51665;Laerm;37751;52.408;12.536;2024-03-23T14:40:32;59.70;51.10;67.97;;
51665;Laerm;37751;52.408;12.536;2024-03-23T14:42:59;60.93;48.71;68.15;;